ESNM weather

Optand Airport
Jämtlande län, Sweden

Public forecast

Using degrees Celsius for public forecast. Weather courtesy of forecast.io.

METAR (pilot weather report)

Closest report is Åre Östersund Airport, 9.1 nm (16.9 km) WNW. Retrieved 2019/07/18 04:20 UTC (23 minutes ago):

ESNZ 180420Z AUTO 13008KT 9999 OVC086/// 12/11 Q1010

TAF (pilot weather forecast)

Forecast is more than 12 hours old.

Closest forecast is Kramfors Sollefteå Airport, 80.7 nm (149.5 km) E. Retrieved 2015/10/08 12:00 UTC (4 years ago):

TAF ESNK 081130Z 0812/0824 18005KT CAVOK PROB40 0820/0824 4000 BR